createdAt,value
2022-08-29T00:00:49.329Z,23.46
2022-08-29T00:03:17.771Z,23.39
2022-08-29T00:05:49.949Z,23.25
2022-08-29T00:08:17.495Z,23.47
2022-08-29T00:10:44.295Z,23.57
2022-08-29T00:13:12.086Z,23.69
2022-08-29T00:15:44.827Z,23.73
2022-08-29T00:18:13.360Z,23.64
2022-08-29T00:20:40.707Z,22.84
2022-08-29T00:23:07.977Z,23.34
2022-08-29T00:25:35.266Z,23.35
2022-08-29T00:28:02.457Z,23.44
2022-08-29T00:30:30.135Z,23.29
2022-08-29T00:32:56.926Z,23.53
2022-08-29T00:35:27.647Z,23.22
2022-08-29T00:37:55.223Z,23.50
2022-08-29T00:40:28.789Z,23.48
2022-08-29T00:42:55.945Z,23.39
2022-08-29T00:45:23.789Z,23.42
2022-08-29T00:48:08.786Z,23.15
2022-08-29T00:50:40.055Z,23.44
2022-08-29T00:53:10.680Z,23.28
2022-08-29T00:55:40.316Z,23.43
2022-08-29T00:58:14.383Z,23.12
2022-08-29T01:00:42.854Z,23.10
2022-08-29T01:03:09.653Z,23.00
2022-08-29T01:05:37.616Z,23.19
2022-08-29T01:08:05.828Z,23.06
2022-08-29T01:10:51.922Z,23.29
2022-08-29T01:13:18.811Z,23.26
2022-08-29T01:15:47.178Z,23.18
2022-08-29T01:18:16.203Z,22.70
2022-08-29T01:21:15.193Z,22.76
2022-08-29T01:23:50.863Z,23.11
2022-08-29T01:26:17.662Z,23.19
2022-08-29T01:28:49.596Z,23.24
2022-08-29T01:31:42.186Z,23.12
2022-08-29T01:34:11.184Z,23.08
2022-08-29T01:36:53.852Z,23.18
2022-08-29T01:39:23.371Z,23.34
2022-08-29T01:41:50.508Z,23.11
2022-08-29T01:44:22.314Z,23.08
2022-08-29T01:46:51.310Z,23.19
2022-08-29T01:49:19.505Z,23.01
2022-08-29T01:51:46.494Z,23.01
2022-08-29T01:54:14.204Z,22.57
2022-08-29T01:56:44.616Z,23.18
2022-08-29T01:59:15.914Z,23.16
2022-08-29T02:01:48.530Z,22.92
2022-08-29T02:04:15.725Z,23.00
2022-08-29T02:06:43.090Z,22.99
2022-08-29T02:09:11.210Z,23.14
2022-08-29T02:11:40.057Z,23.08
2022-08-29T02:14:08.068Z,23.22
2022-08-29T02:16:43.069Z,23.24
2022-08-29T02:19:09.871Z,22.93
2022-08-29T02:21:36.607Z,22.92
2022-08-29T02:24:23.952Z,23.34
2022-08-29T02:26:51.924Z,23.26
2022-08-29T02:29:18.713Z,22.89
2022-08-29T02:31:45.531Z,22.94
2022-08-29T02:34:13.146Z,23.06
2022-08-29T02:36:41.534Z,23.30
2022-08-29T02:39:10.074Z,22.83
2022-08-29T02:41:38.054Z,23.10
2022-08-29T02:44:05.224Z,22.79
2022-08-29T02:46:32.555Z,23.18
2022-08-29T02:49:00.733Z,23.32
2022-08-29T02:51:30.957Z,23.21
2022-08-29T02:53:58.343Z,23.03
2022-08-29T02:56:25.836Z,23.03
2022-08-29T02:58:52.828Z,23.00
2022-08-29T03:01:21.886Z,22.42
2022-08-29T03:03:50.563Z,22.81
2022-08-29T03:06:18.593Z,22.92
2022-08-29T03:08:45.800Z,22.82
2022-08-29T03:11:12.564Z,22.87
2022-08-29T03:13:39.459Z,22.61
2022-08-29T03:16:06.365Z,22.99
2022-08-29T03:18:33.257Z,22.88
2022-08-29T03:21:00.304Z,22.80
2022-08-29T03:23:27.095Z,22.55
2022-08-29T03:25:55.139Z,22.56
2022-08-29T03:28:21.866Z,22.49
2022-08-29T03:30:48.748Z,22.39
2022-08-29T03:33:15.856Z,22.30
2022-08-29T03:35:43.135Z,22.11
2022-08-29T03:38:10.011Z,22.27
2022-08-29T03:40:37.129Z,22.24
2022-08-29T03:43:03.997Z,22.08
2022-08-29T03:45:30.831Z,22.12
2022-08-29T03:47:57.615Z,22.31
2022-08-29T03:50:24.633Z,22.28
2022-08-29T03:52:52.072Z,22.18
2022-08-29T03:55:20.413Z,22.41
2022-08-29T03:57:47.670Z,22.30
2022-08-29T04:00:17.482Z,22.40
2022-08-29T04:02:46.951Z,22.21
2022-08-29T04:05:16.917Z,22.27
2022-08-29T04:07:57.330Z,22.25
2022-08-29T04:10:28.201Z,22.14
2022-08-29T04:12:55.162Z,22.67
2022-08-29T04:15:24.208Z,22.33
2022-08-29T04:17:54.569Z,22.37
2022-08-29T04:20:25.393Z,22.35
2022-08-29T04:22:54.444Z,22.19
2022-08-29T04:25:22.691Z,22.56
2022-08-29T04:27:49.819Z,22.67
2022-08-29T04:30:19.969Z,22.72
2022-08-29T04:32:47.473Z,22.28
2022-08-29T04:35:15.981Z,22.27
2022-08-29T04:37:43.981Z,22.57
2022-08-29T04:40:18.423Z,22.54
2022-08-29T04:42:47.261Z,22.53
2022-08-29T04:45:18.050Z,22.71
2022-08-29T04:47:45.176Z,22.66
2022-08-29T04:50:15.534Z,23.03
2022-08-29T04:52:43.994Z,22.98
2022-08-29T04:55:12.369Z,23.11
2022-08-29T04:57:40.239Z,23.15
2022-08-29T05:00:14.019Z,23.07
2022-08-29T05:02:42.550Z,23.19
2022-08-29T05:05:11.430Z,23.35
2022-08-29T05:07:38.669Z,23.23
2022-08-29T05:10:11.588Z,23.17
2022-08-29T05:12:38.332Z,23.10
2022-08-29T05:15:07.009Z,22.96
2022-08-29T05:17:33.858Z,23.24
2022-08-29T05:20:01.239Z,23.04
2022-08-29T05:22:27.989Z,23.23
2022-08-29T05:24:57.125Z,23.43
2022-08-29T05:27:24.289Z,23.44
2022-08-29T05:29:51.951Z,23.52
2022-08-29T05:32:19.724Z,23.58
2022-08-29T05:34:48.350Z,23.74
2022-08-29T05:37:19.593Z,23.64
2022-08-29T05:39:47.750Z,23.79
2022-08-29T05:42:17.202Z,23.75
2022-08-29T05:44:44.298Z,23.89
2022-08-29T05:47:13.620Z,23.90
2022-08-29T05:49:42.579Z,23.97
2022-08-29T05:52:10.687Z,24.00
2022-08-29T05:54:40.590Z,23.59
2022-08-29T05:57:15.369Z,23.85
2022-08-29T05:59:45.091Z,23.72
2022-08-29T06:02:12.713Z,23.38
2022-08-29T06:04:39.867Z,23.75
2022-08-29T06:07:07.739Z,23.85
2022-08-29T06:09:36.040Z,23.92
2022-08-29T06:12:03.463Z,23.72
2022-08-29T06:14:30.271Z,23.71
2022-08-29T06:16:57.316Z,24.02
2022-08-29T06:19:24.639Z,24.18
2022-08-29T06:21:54.418Z,24.20
2022-08-29T06:24:21.320Z,24.40
2022-08-29T06:26:48.074Z,24.13
2022-08-29T06:29:16.145Z,23.62
2022-08-29T06:31:43.220Z,24.11
2022-08-29T06:34:10.089Z,24.48
2022-08-29T06:36:37.636Z,24.74
2022-08-29T06:39:07.489Z,24.62
2022-08-29T06:41:36.017Z,24.75
2022-08-29T06:44:03.591Z,25.11
2022-08-29T06:46:32.511Z,24.86
2022-08-29T06:49:02.030Z,25.21
2022-08-29T06:51:33.062Z,24.66
2022-08-29T06:54:01.475Z,24.65
2022-08-29T06:56:29.866Z,25.35
2022-08-29T06:58:56.944Z,24.63
2022-08-29T07:01:24.305Z,25.00
2022-08-29T07:03:54.711Z,25.04
2022-08-29T07:06:21.885Z,25.47
2022-08-29T07:08:55.891Z,25.38
2022-08-29T07:11:24.730Z,25.81
2022-08-29T07:13:51.787Z,25.19
2022-08-29T07:16:19.264Z,25.60
2022-08-29T07:18:47.089Z,25.13
2022-08-29T07:21:20.337Z,25.12
2022-08-29T07:23:48.549Z,24.72
2022-08-29T07:26:18.116Z,25.61
2022-08-29T07:28:47.243Z,25.29
2022-08-29T07:31:14.718Z,25.06
2022-08-29T07:33:41.569Z,25.13
2022-08-29T07:36:08.908Z,24.76
2022-08-29T07:38:36.127Z,25.12
2022-08-29T07:41:08.497Z,25.22
2022-08-29T07:43:36.267Z,25.08
2022-08-29T07:46:11.822Z,25.30
2022-08-29T07:48:39.666Z,26.01
2022-08-29T07:51:12.076Z,26.68
2022-08-29T07:53:40.426Z,25.64
2022-08-29T07:56:09.366Z,26.09
2022-08-29T07:58:36.667Z,26.46
2022-08-29T08:01:04.603Z,25.85
2022-08-29T08:03:32.926Z,25.68
2022-08-29T08:06:00.273Z,25.60
2022-08-29T08:08:33.774Z,26.02
2022-08-29T08:11:01.509Z,26.65
2022-08-29T08:13:28.908Z,26.69
2022-08-29T08:15:55.846Z,26.26
2022-08-29T08:18:23.202Z,26.99
2022-08-29T08:20:50.036Z,27.44
2022-08-29T08:23:18.971Z,27.94
2022-08-29T08:25:46.196Z,28.10
2022-08-29T08:28:17.274Z,28.15
2022-08-29T08:30:44.667Z,28.22
2022-08-29T08:33:11.964Z,28.23
2022-08-29T08:35:42.016Z,28.44
2022-08-29T08:38:09.307Z,27.92
2022-08-29T08:40:44.466Z,28.70
2022-08-29T08:43:21.374Z,29.10
2022-08-29T08:45:55.576Z,29.34
2022-08-29T08:48:26.232Z,29.64
2022-08-29T08:51:21.967Z,29.47
2022-08-29T08:53:52.956Z,29.26
2022-08-29T08:56:26.905Z,29.18
2022-08-29T08:59:32.637Z,29.37
2022-08-29T09:02:06.521Z,28.75
2022-08-29T09:04:59.988Z,28.72
2022-08-29T09:07:37.102Z,28.89
2022-08-29T09:10:30.500Z,28.29
2022-08-29T09:13:09.486Z,28.62
2022-08-29T09:15:46.228Z,28.70
2022-08-29T09:18:31.462Z,28.76
2022-08-29T09:21:06.608Z,28.99
2022-08-29T09:23:47.268Z,28.93
2022-08-29T09:26:20.495Z,29.99
2022-08-29T09:28:48.678Z,29.88
2022-08-29T09:31:27.249Z,29.73
2022-08-29T09:34:03.864Z,29.97
2022-08-29T09:36:52.800Z,30.63
2022-08-29T09:39:31.567Z,30.88
2022-08-29T09:42:21.908Z,30.74
2022-08-29T09:44:57.945Z,31.02
2022-08-29T09:47:29.966Z,30.48
2022-08-29T09:50:21.236Z,30.71
2022-08-29T09:52:56.048Z,30.67
2022-08-29T09:55:31.226Z,31.10
2022-08-29T09:58:29.736Z,30.40
2022-08-29T10:01:16.720Z,30.82
2022-08-29T10:04:00.747Z,30.93
2022-08-29T10:06:32.410Z,30.31
2022-08-29T10:09:26.904Z,30.41
2022-08-29T10:12:01.206Z,30.60
2022-08-29T10:14:41.360Z,30.60
2022-08-29T10:17:41.937Z,30.02
2022-08-29T10:20:11.833Z,29.87
2022-08-29T10:22:52.416Z,29.64
2022-08-29T10:25:27.163Z,30.33
2022-08-29T10:27:56.794Z,29.84
2022-08-29T10:30:29.638Z,30.59
2022-08-29T10:33:04.869Z,31.20
2022-08-29T10:35:34.596Z,31.83
2022-08-29T10:38:15.088Z,32.15
2022-08-29T10:40:47.917Z,31.14
2022-08-29T10:43:20.696Z,30.53
2022-08-29T10:46:08.811Z,31.41
2022-08-29T10:48:45.658Z,32.23
2022-08-29T10:51:31.658Z,31.88
2022-08-29T10:54:07.248Z,32.30
2022-08-29T10:56:41.025Z,32.93
2022-08-29T10:59:19.956Z,33.28
2022-08-29T11:01:57.576Z,33.36
2022-08-29T11:04:33.447Z,33.62
2022-08-29T11:07:06.738Z,33.98
2022-08-29T11:09:43.316Z,33.49
2022-08-29T11:12:25.873Z,32.82
2022-08-29T11:15:02.392Z,32.61
2022-08-29T11:17:34.670Z,32.70
2022-08-29T11:20:17.667Z,33.25
2022-08-29T11:23:01.946Z,34.11
2022-08-29T11:25:32.816Z,32.53
2022-08-29T11:28:08.610Z,33.38
2022-08-29T11:30:59.327Z,33.15
2022-08-29T11:33:32.850Z,31.29
2022-08-29T11:36:30.624Z,33.08
2022-08-29T11:39:23.421Z,33.16
2022-08-29T11:41:58.493Z,33.23
2022-08-29T11:44:34.146Z,33.38
2022-08-29T11:47:02.048Z,31.92
2022-08-29T11:49:43.192Z,32.22
2022-08-29T11:52:11.100Z,32.13
2022-08-29T11:54:48.213Z,32.60
2022-08-29T11:57:16.567Z,31.28
2022-08-29T11:59:49.397Z,32.02
2022-08-29T12:02:28.565Z,32.08
2022-08-29T12:04:59.727Z,32.90
2022-08-29T12:07:35.157Z,31.45
2022-08-29T12:10:07.950Z,32.08
2022-08-29T12:12:44.024Z,33.13
2022-08-29T12:15:32.811Z,32.38
2022-08-29T12:18:09.418Z,31.49
2022-08-29T12:20:45.875Z,32.16
2022-08-29T12:23:15.787Z,32.03
2022-08-29T12:25:45.415Z,31.45
2022-08-29T12:28:20.617Z,31.90
2022-08-29T12:30:47.368Z,31.94
2022-08-29T12:33:49.594Z,32.59
2022-08-29T12:36:38.116Z,31.24
2022-08-29T12:39:20.909Z,31.08
2022-08-29T12:42:17.649Z,31.83
2022-08-29T12:44:49.939Z,32.34
2022-08-29T12:47:27.916Z,32.18
2022-08-29T12:49:58.859Z,31.92
2022-08-29T12:52:35.716Z,31.00
2022-08-29T12:55:28.759Z,31.42
2022-08-29T12:57:57.727Z,31.61
2022-08-29T13:00:31.193Z,31.86
2022-08-29T13:03:09.636Z,31.95
2022-08-29T13:05:43.163Z,31.79
2022-08-29T13:08:33.346Z,30.37
2022-08-29T13:11:03.131Z,30.94
2022-08-29T13:13:30.367Z,30.70
2022-08-29T13:16:01.718Z,30.52
2022-08-29T13:18:31.262Z,30.08
2022-08-29T13:21:14.667Z,29.96
2022-08-29T13:23:46.201Z,30.79
2022-08-29T13:26:14.289Z,30.70
2022-08-29T13:28:49.046Z,30.41
2022-08-29T13:31:15.853Z,30.82
2022-08-29T13:33:48.806Z,30.26
2022-08-29T13:36:27.898Z,30.90
2022-08-29T13:39:25.088Z,31.11
2022-08-29T13:41:57.917Z,30.85
2022-08-29T13:44:29.707Z,29.57
2022-08-29T13:46:59.643Z,29.93
2022-08-29T13:49:36.640Z,30.17
2022-08-29T13:52:07.827Z,29.49
2022-08-29T13:54:39.354Z,30.44
2022-08-29T13:57:09.604Z,30.68
2022-08-29T13:59:36.976Z,30.39
2022-08-29T14:02:10.498Z,31.25
2022-08-29T14:04:39.809Z,31.24
2022-08-29T14:07:11.961Z,30.55
2022-08-29T14:09:42.027Z,30.26
2022-08-29T14:12:10.097Z,31.05
2022-08-29T14:14:36.846Z,31.34
2022-08-29T14:17:04.464Z,31.64
2022-08-29T14:19:32.471Z,32.15
2022-08-29T14:22:00.642Z,31.61
2022-08-29T14:24:31.168Z,32.04
2022-08-29T14:27:01.713Z,31.74
2022-08-29T14:29:30.851Z,31.74
2022-08-29T14:31:59.147Z,32.07
2022-08-29T14:34:32.353Z,30.61
2022-08-29T14:37:00.599Z,31.26
2022-08-29T14:39:27.675Z,30.04
2022-08-29T14:41:55.084Z,29.54
2022-08-29T14:44:22.612Z,29.36
2022-08-29T14:46:50.271Z,30.63
2022-08-29T14:49:18.191Z,30.53
2022-08-29T14:51:45.057Z,30.67
2022-08-29T14:54:12.587Z,29.72
2022-08-29T14:56:48.708Z,29.69
2022-08-29T14:59:15.990Z,29.65
2022-08-29T15:01:43.155Z,29.38
2022-08-29T15:04:11.181Z,29.61
2022-08-29T15:06:38.608Z,30.27
2022-08-29T15:09:06.202Z,30.41
2022-08-29T15:11:33.152Z,29.39
2022-08-29T15:14:04.339Z,29.57
2022-08-29T15:16:32.717Z,29.57
2022-08-29T15:19:40.602Z,29.54
2022-08-29T15:21:49.898Z,29.25
2022-08-29T15:24:16.687Z,30.02
2022-08-29T15:26:45.047Z,29.70
2022-08-29T15:29:12.077Z,29.54
2022-08-29T15:31:38.889Z,29.88
2022-08-29T15:34:06.337Z,29.73
2022-08-29T15:36:34.361Z,29.96
2022-08-29T15:39:05.057Z,30.14
2022-08-29T15:41:32.816Z,30.19
2022-08-29T15:43:59.957Z,30.34
2022-08-29T15:46:27.034Z,30.57
2022-08-29T15:48:54.237Z,30.56
2022-08-29T15:51:21.727Z,30.34
2022-08-29T15:53:48.611Z,30.10
2022-08-29T15:56:15.507Z,29.14
2022-08-29T15:58:44.066Z,29.79
2022-08-29T16:01:12.426Z,29.64
2022-08-29T16:03:39.227Z,29.71
2022-08-29T16:06:06.479Z,29.22
2022-08-29T16:08:33.313Z,29.22
2022-08-29T16:11:01.038Z,29.03
2022-08-29T16:13:27.919Z,29.19
2022-08-29T16:15:55.014Z,29.27
2022-08-29T16:18:21.936Z,29.35
2022-08-29T16:20:48.706Z,29.44
2022-08-29T16:23:17.112Z,29.10
2022-08-29T16:25:44.831Z,29.08
2022-08-29T16:28:11.943Z,29.42
2022-08-29T16:30:45.946Z,29.03
2022-08-29T16:33:13.699Z,27.88
2022-08-29T16:35:40.646Z,28.83
2022-08-29T16:38:07.437Z,28.75
2022-08-29T16:40:34.511Z,28.72
2022-08-29T16:43:02.932Z,28.88
2022-08-29T16:45:30.950Z,27.99
2022-08-29T16:47:57.895Z,28.11
2022-08-29T16:50:25.775Z,28.50
2022-08-29T16:52:52.925Z,28.67
2022-08-29T16:55:20.248Z,28.43
2022-08-29T16:58:07.093Z,28.49
2022-08-29T17:00:34.467Z,28.46
2022-08-29T17:03:01.527Z,28.24
2022-08-29T17:05:28.555Z,28.33
2022-08-29T17:07:55.246Z,28.31
2022-08-29T17:10:22.178Z,28.06
2022-08-29T17:12:48.924Z,28.25
2022-08-29T17:15:15.806Z,27.97
2022-08-29T17:17:42.938Z,28.23
2022-08-29T17:20:11.685Z,28.33
2022-08-29T17:22:38.533Z,28.37
2022-08-29T17:25:05.859Z,28.47
2022-08-29T17:27:32.870Z,28.39
2022-08-29T17:29:59.600Z,28.31
2022-08-29T17:32:26.346Z,28.51
2022-08-29T17:34:53.136Z,28.35
2022-08-29T17:37:19.944Z,28.49
2022-08-29T17:39:46.726Z,28.62
2022-08-29T17:42:14.541Z,28.68
2022-08-29T17:44:41.892Z,28.67
2022-08-29T17:47:08.707Z,28.63
2022-08-29T17:49:35.468Z,28.65
2022-08-29T17:52:02.606Z,28.61
2022-08-29T17:54:29.508Z,28.66
2022-08-29T17:57:00.256Z,28.45
2022-08-29T17:59:30.658Z,28.56
2022-08-29T18:01:58.852Z,28.50
2022-08-29T18:04:27.037Z,28.46
2022-08-29T18:06:57.341Z,28.42
2022-08-29T18:09:24.716Z,28.35
2022-08-29T18:11:53.047Z,28.23
2022-08-29T18:14:22.765Z,28.24
2022-08-29T18:16:50.641Z,28.19
2022-08-29T18:19:18.213Z,28.06
2022-08-29T18:21:45.805Z,28.07
2022-08-29T18:24:15.186Z,28.11
2022-08-29T18:26:43.459Z,27.88
2022-08-29T18:29:11.047Z,27.70
2022-08-29T18:31:37.917Z,27.73
2022-08-29T18:34:04.933Z,27.59
2022-08-29T18:36:33.643Z,27.56
2022-08-29T18:39:02.575Z,27.55
2022-08-29T18:41:29.884Z,27.30
2022-08-29T18:43:57.387Z,27.02
2022-08-29T18:46:24.470Z,27.20
2022-08-29T18:48:52.067Z,27.16
2022-08-29T18:51:19.898Z,27.20
2022-08-29T18:53:47.656Z,27.24
2022-08-29T18:56:14.964Z,27.09
2022-08-29T18:58:44.402Z,27.00
2022-08-29T19:01:13.760Z,26.69
2022-08-29T19:03:41.820Z,26.72
2022-08-29T19:06:08.717Z,26.19
2022-08-29T19:08:36.605Z,26.19
2022-08-29T19:11:06.867Z,25.97
2022-08-29T19:13:37.971Z,25.96
2022-08-29T19:16:10.168Z,25.77
2022-08-29T19:18:37.387Z,25.68
2022-08-29T19:21:07.547Z,25.42
2022-08-29T19:23:36.338Z,25.26
2022-08-29T19:26:07.565Z,25.19
2022-08-29T19:28:35.064Z,25.16
2022-08-29T19:31:02.489Z,25.32
2022-08-29T19:33:29.564Z,25.42
2022-08-29T19:35:56.444Z,25.50
2022-08-29T19:38:24.161Z,25.45
2022-08-29T19:40:57.094Z,25.58
2022-08-29T19:43:31.176Z,25.59
2022-08-29T19:45:59.098Z,25.67
2022-08-29T19:48:27.086Z,25.61
2022-08-29T19:50:54.547Z,25.63
2022-08-29T19:53:26.230Z,25.54
2022-08-29T19:55:55.768Z,25.55
2022-08-29T19:58:31.060Z,25.53
2022-08-29T20:01:07.012Z,25.44
2022-08-29T20:03:37.648Z,25.45
2022-08-29T20:06:07.584Z,25.32
2022-08-29T20:08:39.935Z,25.30
2022-08-29T20:11:06.928Z,25.18
2022-08-29T20:13:35.915Z,25.11
2022-08-29T20:16:09.709Z,25.15
2022-08-29T20:18:40.577Z,25.23
2022-08-29T20:21:07.708Z,25.26
2022-08-29T20:23:34.629Z,25.14
2022-08-29T20:26:01.764Z,24.41
2022-08-29T20:28:30.932Z,24.91
2022-08-29T20:30:58.178Z,24.63
2022-08-29T20:33:25.654Z,24.65
2022-08-29T20:36:11.449Z,24.50
2022-08-29T20:38:38.213Z,24.43
2022-08-29T20:41:05.146Z,24.25
2022-08-29T20:43:32.098Z,24.20
2022-08-29T20:45:59.935Z,24.16
2022-08-29T20:48:31.454Z,24.10
2022-08-29T20:51:02.854Z,23.97
2022-08-29T20:53:32.415Z,24.13
2022-08-29T20:56:01.071Z,24.10
2022-08-29T20:58:30.297Z,24.16
2022-08-29T21:00:59.674Z,24.24
2022-08-29T21:03:45.278Z,23.95
2022-08-29T21:06:12.931Z,23.84
2022-08-29T21:08:41.148Z,23.99
2022-08-29T21:11:08.186Z,23.89
2022-08-29T21:13:35.037Z,23.51
2022-08-29T21:16:02.096Z,23.67
2022-08-29T21:18:28.877Z,23.62
2022-08-29T21:20:55.777Z,23.84
2022-08-29T21:23:24.650Z,23.77
2022-08-29T21:25:56.416Z,23.72
2022-08-29T21:28:25.046Z,23.82
2022-08-29T21:30:52.220Z,23.79
2022-08-29T21:33:20.011Z,23.52
2022-08-29T21:35:47.038Z,23.13
2022-08-29T21:38:17.359Z,23.40
2022-08-29T21:40:51.041Z,23.24
2022-08-29T21:43:19.610Z,23.35
2022-08-29T21:45:47.429Z,23.58
2022-08-29T21:48:14.211Z,23.50
2022-08-29T21:50:41.005Z,23.53
2022-08-29T21:53:07.724Z,23.10
2022-08-29T21:55:34.526Z,23.18
2022-08-29T21:58:01.980Z,23.29
2022-08-29T22:00:34.423Z,23.39
2022-08-29T22:03:03.806Z,23.42
2022-08-29T22:05:31.350Z,23.40
2022-08-29T22:07:58.369Z,23.48
2022-08-29T22:10:28.388Z,23.36
2022-08-29T22:12:55.459Z,23.46
2022-08-29T22:15:42.514Z,23.38
2022-08-29T22:18:09.627Z,23.46
2022-08-29T22:20:38.516Z,23.31
2022-08-29T22:23:05.878Z,23.30
2022-08-29T22:25:32.947Z,23.33
2022-08-29T22:27:59.825Z,23.26
2022-08-29T22:30:32.092Z,23.20
2022-08-29T22:33:00.505Z,23.10
2022-08-29T22:35:28.681Z,23.13
2022-08-29T22:37:55.897Z,23.08
2022-08-29T22:40:23.699Z,22.95
2022-08-29T22:42:50.486Z,22.93
2022-08-29T22:45:19.025Z,23.01
2022-08-29T22:47:47.137Z,22.99
2022-08-29T22:50:21.447Z,22.95
2022-08-29T22:52:49.197Z,22.96
2022-08-29T22:57:47.997Z,22.80
2022-08-29T23:00:20.137Z,22.65
2022-08-29T23:02:47.293Z,22.12
2022-08-29T23:05:15.274Z,22.41
2022-08-29T23:07:42.092Z,22.59
2022-08-29T23:10:10.214Z,22.63
2022-08-29T23:12:37.497Z,22.61
2022-08-29T23:15:10.293Z,22.51
2022-08-29T23:17:37.317Z,22.58
2022-08-29T23:20:06.577Z,22.70
2022-08-29T23:22:33.756Z,22.67
2022-08-29T23:25:04.651Z,22.70
2022-08-29T23:27:33.570Z,22.73
2022-08-29T23:30:01.653Z,22.59
2022-08-29T23:32:28.797Z,22.59
2022-08-29T23:34:55.856Z,22.54
2022-08-29T23:37:22.828Z,22.54
2022-08-29T23:39:49.632Z,22.31
2022-08-29T23:42:16.501Z,22.52
2022-08-29T23:44:43.351Z,22.32
2022-08-29T23:47:10.202Z,22.20
2022-08-29T23:49:36.965Z,22.29
2022-08-29T23:52:04.697Z,22.26
2022-08-29T23:54:32.546Z,22.42
2022-08-29T23:56:59.338Z,22.45
2022-08-29T23:59:44.867Z,22.38
